Blanca — 2EKJ7 — position and weather

sailwx.info

Track history (hours):
 
Tides and Currents Weather Stations Pressure Air Temp Water Temp Dewpoint Dewpoint Depression Visibility Wind Speed Wind Dir Waves Ship Positions

Blanca

Last reported at 2014-Jun-16 15:08 UTC. Time now 2014-Sep-21 06:09 UTC.
Position N 35°53' E 014°31'.
Warning: this ship's position is months out of date.

Length 50 m; draft 3.1 m.

Type: Pleasure craft. MMSI: 235085866.

Date/timePositionNaut miles runAvg speedWind from/ knotsBaromVisibWave heightAir tempDewpointWater temp
2014-Jun-16 15:08N 35°53' E 014°31'0 0.2
2014-Jun-16 14:33N 35°53' E 014°31'7 7.1
2014-Jun-16 13:31N 35°58' E 014°24'0 0.0
2014-Jun-16 12:28N 35°58' E 014°24'0 0.0
2014-Jun-16 11:28N 35°58' E 014°24'7 0.4
2014-Jun-15 16:08N 35°53' E 014°31'4 7.6
2014-Jun-15 15:33N 35°51' E 014°36'4 0.2
2014-Jun-14 16:20N 35°53' E 014°31'1010.3
2014-Jun-14 15:23N 36°00' E 014°22'2 2.4
2014-Jun-14 14:32N 36°00' E 014°20'0 0.0
2014-Jun-14 13:32N 36°00' E 014°20'0 0.0
2014-Jun-14 10:29N 36°00' E 014°20'2 1.0
2014-Jun-14 08:33N 36°00' E 014°22'10 8.9
2014-Jun-14 07:26N 35°53' E 014°31'0 0.0
2014-Jun-14 06:05N 35°53' E 014°31'0 0.0
2014-Jun-13 21:23N 35°53' E 014°31'0 0.0
2014-Jun-13 20:23N 35°53' E 014°31'0 0.0
2014-Jun-13 18:23N 35°53' E 014°31'0 0.0
2014-Jun-13 16:14N 35°53' E 014°31'1 1.4
2014-Jun-13 15:34N 35°54' E 014°32'7 3.4
2014-Jun-13 13:29N 35°58' E 014°24'0 0.0
2014-Jun-13 12:29N 35°58' E 014°24'0 0.0
2014-Jun-13 11:29N 35°58' E 014°24'0 0.0
2014-Jun-13 10:33N 35°58' E 014°24'7 6.9
2014-Jun-13 09:28N 35°53' E 014°31'0 0.0
2014-Jun-13 08:31N 35°53' E 014°31'0 0.0
2014-Jun-13 07:22N 35°53' E 014°31'0 0.0
2014-Jun-13 06:28N 35°53' E 014°31'0 0.0
2014-Jun-13 05:14N 35°53' E 014°31'0 0.0
2014-Jun-13 04:33N 35°53' E 014°31'0 0.0
2014-Jun-13 03:33N 35°53' E 014°31'0 0.0
2014-Jun-13 02:33N 35°53' E 014°31'0 0.0
2014-Jun-13 01:34N 35°53' E 014°31'0 0.0
2014-Jun-13 00:33N 35°53' E 014°31'0 0.0
2014-Jun-12 23:34N 35°53' E 014°31'0 0.0
2014-Jun-12 22:33N 35°53' E 014°31'0 0.0
2014-Jun-12 18:33N 35°53' E 014°31'0 0.0
2014-Jun-12 17:33N 35°53' E 014°31'0 0.0
2014-Jun-12 16:33N 35°53' E 014°31'0 0.0
2014-Jun-12 15:33N 35°53' E 014°31'0 0.0
2014-Jun-12 14:33N 35°53' E 014°31'0 0.0
2014-Jun-12 13:31N 35°53' E 014°31'0 0.0
2014-Jun-12 12:32N 35°53' E 014°31'0 0.0
2014-Jun-12 10:14N 35°53' E 014°31'0 0.0
2014-Jun-12 09:24N 35°53' E 014°31'0 0.0
2014-Jun-12 08:33N 35°53' E 014°31'0 0.0
2014-Jun-12 01:09N 35°53' E 014°31'0 0.0
2014-Jun-12 00:34N 35°53' E 014°31'0 0.0
2014-Jun-11 23:31N 35°53' E 014°31'0 0.0
2014-Jun-11 22:33N 35°53' E 014°31'  
2014-Jun-06 15:26N 35°53' E 014°31'  
Track history (hours):
 
Tides and Currents Weather Stations Pressure Air Temp Water Temp Dewpoint Dewpoint Depression Visibility Wind Speed Wind Dir Waves Ship Positions

Blanca

Last reported at 2014-Jun-16 15:08 UTC. Time now 2014-Sep-21 06:09 UTC.
Position N 35°53' E 014°31'.
Warning: this ship's position is months out of date.

Length 50 m; draft 3.1 m.

Type: Pleasure craft. MMSI: 235085866.

Date/timePositionNaut miles runAvg speedWind from/ knotsBaromVisibWave heightAir tempDewpointWater temp
2014-Jun-16 15:08N 35°53' E 014°31'0 0.2
2014-Jun-16 14:33N 35°53' E 014°31'7 7.1
2014-Jun-16 13:31N 35°58' E 014°24'0 0.0
2014-Jun-16 12:28N 35°58' E 014°24'0 0.0
2014-Jun-16 11:28N 35°58' E 014°24'7 0.4
2014-Jun-15 16:08N 35°53' E 014°31'4 7.6
2014-Jun-15 15:33N 35°51' E 014°36'4 0.2
2014-Jun-14 16:20N 35°53' E 014°31'1010.3
2014-Jun-14 15:23N 36°00' E 014°22'2 2.4
2014-Jun-14 14:32N 36°00' E 014°20'0 0.0
2014-Jun-14 13:32N 36°00' E 014°20'0 0.0
2014-Jun-14 10:29N 36°00' E 014°20'2 1.0
2014-Jun-14 08:33N 36°00' E 014°22'10 8.9
2014-Jun-14 07:26N 35°53' E 014°31'0 0.0
2014-Jun-14 06:05N 35°53' E 014°31'0 0.0
2014-Jun-13 21:23N 35°53' E 014°31'0 0.0
2014-Jun-13 20:23N 35°53' E 014°31'0 0.0
2014-Jun-13 18:23N 35°53' E 014°31'0 0.0
2014-Jun-13 16:14N 35°53' E 014°31'1 1.4
2014-Jun-13 15:34N 35°54' E 014°32'7 3.4
2014-Jun-13 13:29N 35°58' E 014°24'0 0.0
2014-Jun-13 12:29N 35°58' E 014°24'0 0.0
2014-Jun-13 11:29N 35°58' E 014°24'0 0.0
2014-Jun-13 10:33N 35°58' E 014°24'7 6.9
2014-Jun-13 09:28N 35°53' E 014°31'0 0.0
2014-Jun-13 08:31N 35°53' E 014°31'0 0.0
2014-Jun-13 07:22N 35°53' E 014°31'0 0.0
2014-Jun-13 06:28N 35°53' E 014°31'0 0.0
2014-Jun-13 05:14N 35°53' E 014°31'0 0.0
2014-Jun-13 04:33N 35°53' E 014°31'0 0.0
2014-Jun-13 03:33N 35°53' E 014°31'0 0.0
2014-Jun-13 02:33N 35°53' E 014°31'0 0.0
2014-Jun-13 01:34N 35°53' E 014°31'0 0.0
2014-Jun-13 00:33N 35°53' E 014°31'0 0.0
2014-Jun-12 23:34N 35°53' E 014°31'0 0.0
2014-Jun-12 22:33N 35°53' E 014°31'0 0.0
2014-Jun-12 18:33N 35°53' E 014°31'0 0.0
2014-Jun-12 17:33N 35°53' E 014°31'0 0.0
2014-Jun-12 16:33N 35°53' E 014°31'0 0.0
2014-Jun-12 15:33N 35°53' E 014°31'0 0.0
2014-Jun-12 14:33N 35°53' E 014°31'0 0.0
2014-Jun-12 13:31N 35°53' E 014°31'0 0.0
2014-Jun-12 12:32N 35°53' E 014°31'0 0.0
2014-Jun-12 10:14N 35°53' E 014°31'0 0.0
2014-Jun-12 09:24N 35°53' E 014°31'0 0.0
2014-Jun-12 08:33N 35°53' E 014°31'0 0.0
2014-Jun-12 01:09N 35°53' E 014°31'0 0.0
2014-Jun-12 00:34N 35°53' E 014°31'0 0.0
2014-Jun-11 23:31N 35°53' E 014°31'0 0.0
2014-Jun-11 22:33N 35°53' E 014°31'  
2014-Jun-06 15:26N 35°53' E 014°31'  

Dump ship's entire track history